Arrowsmith, IL (61722)

6:11 PM CDT on July 06, 2015 (GMT -0500)
APRSWXNET | | Change Station
CLOSE
Current Station
Personal Weather Station
Location: Arrowsmith, IL
Elevation: 862 ft
Nearby Weather Stations

Elev 862 ft 40.45 °N, 88.63 °W | Updated 28 minutes ago

Mostly Cloudy
Mostly Cloudy
83 °F
Feels Like 92 °F
N
7
Wind Variable Wind from South
Gusts 13.0 mph

Today
High -- | Low -- °F
--% Chance of Precip.
Yesterday
High -- | Low -- °F
Precip. -- in
5:30 AM 8:27 PM
Waning Gibbous, 71% visible
Pressure 29.86 in
Visibility 7.0 miles
Clouds Scattered Clouds 2500 ft
Heat Index 92 °F
Dew Point 77 °F
Humidity 82%
Rainfall in
Snow Depth Not available.
UV 2 out of 12
Pollen 4.20 out of 12
Air Quality Not available.
Flu Activity Not available.
METAR KBMI 062256Z 19015KT 7SM SCT025 29/25 A2990 RMK AO2 T02880250 SLP110

More Conditions Fewer Conditions

Pressure 29.86 in
Visibility 7.0 miles
Clouds Scattered Clouds 2500 ft
Heat Index 92 °F
Dew Point 77 °F
Humidity 82%
Rainfall in
Snow Depth Not available.
UV 2 out of 12
Pollen 4.20 out of 12
Air Quality Not available.
Flu Activity Not available.
METAR KBMI 062256Z 19015KT 7SM SCT025 29/25 A2990 RMK AO2 T02880250 SLP110

More Conditions Fewer Conditions

Nowcast | as of 6:11 PM CDT on July 6, 2015

Isolated showers and thunderstorms over central Illinois early this evening will become more widespread over the illiois River Valley through 10 PM. A few thunderstorms could become strong with gusty winds of 40 to 50 mph...small hail...brief heavy rains and frequent lightning. The strongest thunderstorms through 730 PM will affect Cumberland...Clark and northern Jasper counties and also move east into Knox and Stark counties.

×

10-Day Weather Forecast

×

Almanac

Astronomy

Jul. 06, 2015 Rise Set
Actual Time
Civil Twilight
Nautical Twilight
Astronomical Twilight
Moon
Length of Visible Light
Length of Day
Tomorrow will be .
, % of the Moon is Illuminated

Today's Extremes

State Highs State Lows

Community

WunderPhotos

Upload Photos

1,835,674 photos uploaded!

WunderBlogs® & News

Nearby

Air Quality

  Air Quality AQ Index Pollutant
Not available.

Snow Depth

Station Depth Elevation

Earthquake Activity

City Distance Mag. Time & Date
Minimum magnitude displayed is 2.5.

Coastal Water Temperatures

Place Temperature

Stations

Nearby Weather Stations

Station Location Temp. Windchill Dew Point Humidity Wind Precip. Elev Updated Type